Time;durP1;ratioP1;P1;durP2;ratioP2;P2;SDS_P1;SDS_P2;PMS_P1;PMS_P2;Temp;Humidity;BMP_temperature;BMP_pressure;BME280_temperature;BME280_humidity;BME280_pressure;Samples;Min_cycle;Max_cycle;Signal;HPM_P1;HPM_P2
2021/03/15 00:00:52;;;;;;;5.10;2.80;;;;;;;;;;5023404;28;20177;-61
2021/03/15 00:03:19;;;;;;;5.10;3.00;;;;;;;;;;5050073;28;20189;-62
2021/03/15 00:05:45;;;;;;;3.63;2.37;;;;;;;;;;5023948;28;20315;-64
2021/03/15 00:08:11;;;;;;;6.93;2.60;;;;;;;;;;5040930;28;20211;-62
2021/03/15 00:10:37;;;;;;;5.97;2.60;;;;;;;;;;5047186;28;20193;-63
2021/03/15 00:13:04;;;;;;;3.80;2.60;;;;;;;;;;5025328;28;20185;-64
2021/03/15 00:15:30;;;;;;;4.70;2.73;;;;;;;;;;5046141;28;20264;-64
2021/03/15 00:17:56;;;;;;;4.87;3.10;;;;;;;;;;5027792;28;20181;-62
2021/03/15 00:20:22;;;;;;;4.77;2.80;;;;;;;;;;5022559;28;20267;-62
2021/03/15 00:22:49;;;;;;;4.30;2.77;;;;;;;;;;5042971;28;20192;-62
2021/03/15 00:25:16;;;;;;;4.07;2.20;;;;;;;;;;5042731;28;20199;-63
2021/03/15 00:27:42;;;;;;;3.10;2.50;;;;;;;;;;5048936;28;20194;-61
2021/03/15 00:30:09;;;;;;;3.23;2.70;;;;;;;;;;5046349;28;20173;-62
2021/03/15 00:32:36;;;;;;;4.73;2.67;;;;;;;;;;5049306;28;20193;-62
2021/03/15 00:35:02;;;;;;;5.67;2.93;;;;;;;;;;5046528;28;20268;-64
2021/03/15 00:37:28;;;;;;;7.70;2.97;;;;;;;;;;5023919;28;20177;-61
2021/03/15 00:39:54;;;;;;;3.87;2.70;;;;;;;;;;5045583;28;20234;-63
2021/03/15 00:42:20;;;;;;;7.03;2.60;;;;;;;;;;5039451;28;20223;-64
2021/03/15 00:44:46;;;;;;;4.80;3.10;;;;;;;;;;5041721;28;20189;-61
2021/03/15 00:47:12;;;;;;;4.63;2.70;;;;;;;;;;5047880;28;20176;-62
2021/03/15 00:49:38;;;;;;;4.50;3.10;;;;;;;;;;5024095;28;20307;-61
2021/03/15 00:52:05;;;;;;;4.03;2.90;;;;;;;;;;5041216;28;20211;-61
2021/03/15 00:54:31;;;;;;;6.00;2.87;;;;;;;;;;5044748;28;20201;-62
2021/03/15 00:56:57;;;;;;;8.40;2.87;;;;;;;;;;5030694;28;20174;-61
2021/03/15 00:59:23;;;;;;;3.87;2.90;;;;;;;;;;5022759;28;20178;-61
2021/03/15 01:01:49;;;;;;;5.67;3.10;;;;;;;;;;5016087;28;20177;-61
2021/03/15 01:04:15;;;;;;;5.90;2.87;;;;;;;;;;5025258;28;20246;-61
2021/03/15 01:06:42;;;;;;;8.20;2.90;;;;;;;;;;5023003;28;20288;-62
2021/03/15 01:09:08;;;;;;;4.30;2.90;;;;;;;;;;5037396;28;20191;-62
2021/03/15 01:11:34;;;;;;;5.43;2.97;;;;;;;;;;5053877;28;20278;-61
2021/03/15 01:14:00;;;;;;;7.27;2.90;;;;;;;;;;5055456;28;20193;-61
2021/03/15 01:16:26;;;;;;;6.33;3.03;;;;;;;;;;5026353;28;20183;-62
2021/03/15 01:18:52;;;;;;;5.43;2.63;;;;;;;;;;5042614;28;20192;-61
2021/03/15 01:21:18;;;;;;;4.90;2.50;;;;;;;;;;5041899;28;20231;-61
2021/03/15 01:23:44;;;;;;;6.30;2.83;;;;;;;;;;5047044;28;20178;-62
2021/03/15 01:26:10;;;;;;;4.97;2.50;;;;;;;;;;5047367;28;20181;-62
2021/03/15 01:28:36;;;;;;;5.53;3.37;;;;;;;;;;5042753;28;20227;-61
2021/03/15 01:31:03;;;;;;;4.57;2.60;;;;;;;;;;5041980;28;20196;-62
2021/03/15 01:33:29;;;;;;;4.80;3.03;;;;;;;;;;5025025;28;20725;-61
2021/03/15 01:35:55;;;;;;;6.30;3.00;;;;;;;;;;5034073;28;20181;-61
2021/03/15 01:38:21;;;;;;;7.10;2.87;;;;;;;;;;5022419;28;20227;-63
2021/03/15 01:40:47;;;;;;;5.97;2.83;;;;;;;;;;5024003;28;20232;-60
2021/03/15 01:43:13;;;;;;;5.00;2.90;;;;;;;;;;5042441;28;20823;-61
2021/03/15 01:45:40;;;;;;;4.10;2.77;;;;;;;;;;5040923;28;20533;-63
2021/03/15 01:48:06;;;;;;;5.67;3.03;;;;;;;;;;5049395;28;20201;-60
2021/03/15 01:50:33;;;;;;;3.47;2.30;;;;;;;;;;5036575;28;20571;-61
2021/03/15 01:52:59;;;;;;;4.53;3.03;;;;;;;;;;5049250;28;20193;-61
2021/03/15 01:55:25;;;;;;;2.70;2.33;;;;;;;;;;5026338;28;20224;-60
2021/03/15 01:57:52;;;;;;;4.03;2.93;;;;;;;;;;5040557;28;20204;-63
2021/03/15 02:00:19;;;;;;;4.27;3.60;;;;;;;;;;5034933;28;20659;-60
2021/03/15 02:02:49;;;;;;;3.13;2.40;;;;;;;;;;5038868;28;20655;-61
2021/03/15 02:05:15;;;;;;;3.93;2.73;;;;;;;;;;5040775;28;20279;-61
2021/03/15 02:07:41;;;;;;;6.00;2.70;;;;;;;;;;5040373;28;20174;-61
2021/03/15 02:10:07;;;;;;;5.60;2.90;;;;;;;;;;5036201;28;20180;-61
2021/03/15 02:12:52;;;;;;;3.97;2.50;;;;;;;;;;5040034;28;20193;-62
2021/03/15 02:15:21;;;;;;;3.57;2.43;;;;;;;;;;5047882;28;20197;-61
2021/03/15 02:18:06;;;;;;;3.77;2.50;;;;;;;;;;5032595;28;20620;-62
2021/03/15 02:20:51;;;;;;;4.40;3.03;;;;;;;;;;5026955;28;20812;-61
2021/03/15 02:23:23;;;;;;;6.00;2.63;;;;;;;;;;5039007;28;20257;-62
2021/03/15 02:26:08;;;;;;;4.00;3.00;;;;;;;;;;5015002;28;20166;-60
2021/03/15 02:28:37;;;;;;;3.67;2.73;;;;;;;;;;5040894;28;20229;-60
2021/03/15 02:31:28;;;;;;;7.30;3.30;;;;;;;;;;5031542;28;20651;-61
2021/03/15 02:34:10;;;;;;;6.53;3.03;;;;;;;;;;5041765;28;20720;-61
2021/03/15 02:36:37;;;;;;;4.60;3.37;;;;;;;;;;5030403;28;20317;-61
2021/03/15 02:39:04;;;;;;;6.03;3.10;;;;;;;;;;5024788;28;20731;-61
2021/03/15 02:41:32;;;;;;;5.67;3.40;;;;;;;;;;5034531;28;20616;-61
2021/03/15 02:44:01;;;;;;;4.90;3.40;;;;;;;;;;5041425;28;20177;-60
2021/03/15 02:46:28;;;;;;;4.57;3.30;;;;;;;;;;5039052;28;20193;-62
2021/03/15 02:48:56;;;;;;;4.90;3.70;;;;;;;;;;5045265;28;20206;-61
2021/03/15 02:51:24;;;;;;;5.70;3.33;;;;;;;;;;5046923;28;20231;-62
2021/03/15 02:53:51;;;;;;;4.33;3.30;;;;;;;;;;5048745;28;20236;-62
2021/03/15 02:56:22;;;;;;;6.57;3.60;;;;;;;;;;5030357;28;20181;-62
2021/03/15 02:58:49;;;;;;;6.90;3.67;;;;;;;;;;5042895;28;20177;-61
2021/03/15 03:01:24;;;;;;;5.03;3.40;;;;;;;;;;5028869;28;20264;-61
2021/03/15 03:03:52;;;;;;;4.93;3.00;;;;;;;;;;5042970;28;20176;-61
2021/03/15 03:06:19;;;;;;;4.43;3.50;;;;;;;;;;5043884;28;20205;-61
2021/03/15 03:08:46;;;;;;;6.80;3.13;;;;;;;;;;5030894;28;20371;-61
2021/03/15 03:11:13;;;;;;;4.07;3.40;;;;;;;;;;5044669;28;20263;-62
2021/03/15 03:13:39;;;;;;;5.13;3.20;;;;;;;;;;5033595;28;20287;-61
2021/03/15 03:16:05;;;;;;;6.63;3.50;;;;;;;;;;5054152;28;20177;-62
2021/03/15 03:18:33;;;;;;;3.50;3.20;;;;;;;;;;5054536;28;20600;-61
2021/03/15 03:20:59;;;;;;;4.50;3.00;;;;;;;;;;5033533;28;20620;-61
2021/03/15 03:23:27;;;;;;;5.17;3.17;;;;;;;;;;5050332;28;20235;-61
2021/03/15 03:25:55;;;;;;;4.30;3.20;;;;;;;;;;5025959;28;20252;-61
2021/03/15 03:28:23;;;;;;;3.30;2.80;;;;;;;;;;5033427;28;20232;-61
2021/03/15 03:30:49;;;;;;;4.60;3.10;;;;;;;;;;5027233;28;20280;-61
2021/03/15 03:33:16;;;;;;;4.80;3.23;;;;;;;;;;5031500;28;20405;-61
2021/03/15 03:35:42;;;;;;;4.73;2.67;;;;;;;;;;5042608;28;20234;-61
2021/03/15 03:38:08;;;;;;;4.30;3.23;;;;;;;;;;5030348;28;20267;-61
2021/03/15 03:40:35;;;;;;;3.50;2.77;;;;;;;;;;5035435;28;20182;-60
2021/03/15 03:43:01;;;;;;;5.07;2.93;;;;;;;;;;5024935;28;20621;-61
2021/03/15 03:45:27;;;;;;;3.83;2.97;;;;;;;;;;5033288;28;20174;-60
2021/03/15 03:47:53;;;;;;;3.30;2.93;;;;;;;;;;5051226;28;20205;-62
2021/03/15 03:50:23;;;;;;;4.43;3.00;;;;;;;;;;5046279;28;20205;-61
2021/03/15 03:52:57;;;;;;;5.17;2.90;;;;;;;;;;5033907;28;20185;-61
2021/03/15 03:55:25;;;;;;;4.07;2.50;;;;;;;;;;5039204;28;20251;-62
2021/03/15 03:57:53;;;;;;;3.73;3.03;;;;;;;;;;5042030;28;20232;-61
2021/03/15 04:00:19;;;;;;;4.93;2.77;;;;;;;;;;5026043;28;20177;-61
2021/03/15 04:02:50;;;;;;;4.00;3.30;;;;;;;;;;5050715;28;20177;-60
2021/03/15 04:05:27;;;;;;;4.77;3.03;;;;;;;;;;5050415;28;20189;-60
2021/03/15 04:07:58;;;;;;;3.67;2.90;;;;;;;;;;5033744;28;20244;-61
2021/03/15 04:10:27;;;;;;;3.50;2.90;;;;;;;;;;5022726;28;20258;-61
2021/03/15 04:12:58;;;;;;;3.30;3.00;;;;;;;;;;5050630;28;20181;-62
2021/03/15 04:15:26;;;;;;;3.13;2.80;;;;;;;;;;5043007;28;20188;-61
2021/03/15 04:17:52;;;;;;;4.47;3.00;;;;;;;;;;5015407;28;20202;-61
2021/03/15 04:20:22;;;;;;;3.57;3.27;;;;;;;;;;5026515;28;20173;-62
2021/03/15 04:22:52;;;;;;;5.67;3.50;;;;;;;;;;5030884;28;20174;-62
2021/03/15 04:25:19;;;;;;;4.00;3.23;;;;;;;;;;5039499;28;20193;-62
2021/03/15 04:27:46;;;;;;;5.47;3.00;;;;;;;;;;5019142;28;20224;-61
2021/03/15 04:30:13;;;;;;;4.00;3.37;;;;;;;;;;5012953;28;20582;-62
2021/03/15 04:32:43;;;;;;;3.63;2.93;;;;;;;;;;5042366;28;20604;-62
2021/03/15 04:35:10;;;;;;;4.50;3.07;;;;;;;;;;5047004;28;20355;-61
2021/03/15 04:37:36;;;;;;;4.10;3.33;;;;;;;;;;5043464;28;20619;-61
2021/03/15 04:40:03;;;;;;;4.37;3.47;;;;;;;;;;5041424;28;20176;-61
2021/03/15 04:42:29;;;;;;;5.83;3.87;;;;;;;;;;5042268;28;20188;-61
2021/03/15 04:44:55;;;;;;;4.90;3.70;;;;;;;;;;5045027;28;20201;-61
2021/03/15 04:47:21;;;;;;;5.57;3.23;;;;;;;;;;5030579;28;20253;-62
2021/03/15 04:49:48;;;;;;;4.43;3.50;;;;;;;;;;5039021;28;20212;-60
2021/03/15 04:52:14;;;;;;;3.77;3.37;;;;;;;;;;5015393;28;20181;-61
2021/03/15 04:54:42;;;;;;;6.47;3.80;;;;;;;;;;5027843;28;20541;-61
2021/03/15 04:57:10;;;;;;;5.17;3.63;;;;;;;;;;5032515;28;20239;-61
2021/03/15 04:59:37;;;;;;;3.43;3.13;;;;;;;;;;5030372;28;20189;-61
2021/03/15 05:02:04;;;;;;;4.27;3.43;;;;;;;;;;5048761;28;20207;-61
2021/03/15 05:04:30;;;;;;;4.53;3.70;;;;;;;;;;5046577;28;20172;-61
2021/03/15 05:06:56;;;;;;;4.93;3.90;;;;;;;;;;5020721;28;20190;-61
2021/03/15 05:09:22;;;;;;;5.13;3.47;;;;;;;;;;5028052;28;20193;-61
2021/03/15 05:11:50;;;;;;;3.67;3.33;;;;;;;;;;5040810;28;20330;-63
2021/03/15 05:14:17;;;;;;;5.73;4.00;;;;;;;;;;5044549;28;20239;-61
2021/03/15 05:16:43;;;;;;;7.03;4.30;;;;;;;;;;5042832;28;20267;-61
2021/03/15 05:19:11;;;;;;;4.00;3.20;;;;;;;;;;5049501;28;20173;-62
2021/03/15 05:21:38;;;;;;;5.40;3.80;;;;;;;;;;5026805;28;20303;-61
2021/03/15 05:24:04;;;;;;;7.73;4.27;;;;;;;;;;5040472;28;20213;-64
2021/03/15 05:26:31;;;;;;;5.20;4.00;;;;;;;;;;5041603;28;20256;-61
2021/03/15 05:29:00;;;;;;;4.57;3.47;;;;;;;;;;5045177;28;20209;-63
2021/03/15 05:31:26;;;;;;;4.87;3.50;;;;;;;;;;5039647;28;20185;-61
2021/03/15 05:33:53;;;;;;;6.37;4.10;;;;;;;;;;5023937;28;20519;-61
2021/03/15 05:36:20;;;;;;;6.07;3.77;;;;;;;;;;5031213;28;20177;-61
2021/03/15 05:38:46;;;;;;;4.23;3.70;;;;;;;;;;5042009;28;20647;-61
2021/03/15 05:41:14;;;;;;;4.37;3.23;;;;;;;;;;5029844;28;20181;-61
2021/03/15 05:43:49;;;;;;;4.97;3.03;;;;;;;;;;5049171;28;20533;-61
2021/03/15 05:46:34;;;;;;;5.27;3.70;;;;;;;;;;5040766;28;20628;-61
2021/03/15 05:49:19;;;;;;;4.33;3.30;;;;;;;;;;5034239;28;20205;-61
2021/03/15 05:52:03;;;;;;;4.17;3.63;;;;;;;;;;5046064;28;20257;-61
2021/03/15 05:54:47;;;;;;;6.97;3.73;;;;;;;;;;5012657;28;20205;-63
2021/03/15 05:57:23;;;;;;;3.40;3.10;;;;;;;;;;5026304;28;20191;-61
2021/03/15 06:00:03;;;;;;;5.57;3.27;;;;;;;;;;5047463;28;20181;-61
2021/03/15 06:02:49;;;;;;;3.47;3.17;;;;;;;;;;5058679;28;20539;-61
2021/03/15 06:05:24;;;;;;;4.33;3.10;;;;;;;;;;4995580;28;20355;-61
2021/03/15 06:08:10;;;;;;;4.37;3.37;;;;;;;;;;5014985;28;20177;-61
2021/03/15 06:10:36;;;;;;;3.33;3.03;;;;;;;;;;5041446;28;20295;-61
2021/03/15 06:13:04;;;;;;;4.90;2.87;;;;;;;;;;5028495;28;20541;-61
2021/03/15 06:15:38;;;;;;;4.33;3.20;;;;;;;;;;5035961;28;20196;-61
2021/03/15 06:18:05;;;;;;;6.73;3.23;;;;;;;;;;5052475;28;20271;-61
2021/03/15 06:20:32;;;;;;;4.03;3.40;;;;;;;;;;5033894;28;20579;-61
2021/03/15 06:22:59;;;;;;;6.10;3.70;;;;;;;;;;5057200;28;20218;-61
2021/03/15 06:25:26;;;;;;;6.23;3.37;;;;;;;;;;5023366;28;20196;-61
2021/03/15 06:27:52;;;;;;;5.20;3.17;;;;;;;;;;5043269;28;20224;-64
2021/03/15 06:30:19;;;;;;;4.27;3.57;;;;;;;;;;5070824;28;20651;-61
2021/03/15 06:32:47;;;;;;;5.67;3.60;;;;;;;;;;5048841;28;20643;-62
2021/03/15 06:35:13;;;;;;;3.80;3.33;;;;;;;;;;5046692;28;20215;-61
2021/03/15 06:37:40;;;;;;;5.40;3.30;;;;;;;;;;5042489;28;20193;-61
2021/03/15 06:40:06;;;;;;;4.00;3.20;;;;;;;;;;5047507;28;20178;-62
2021/03/15 06:42:34;;;;;;;4.70;3.47;;;;;;;;;;5015041;28;20205;-62
2021/03/15 06:45:00;;;;;;;5.00;3.37;;;;;;;;;;5014290;28;20587;-64
2021/03/15 06:47:26;;;;;;;6.43;4.10;;;;;;;;;;5049943;28;20395;-61
2021/03/15 06:49:54;;;;;;;5.33;3.70;;;;;;;;;;5040904;28;20214;-61
2021/03/15 06:52:20;;;;;;;4.00;3.27;;;;;;;;;;5045094;28;20189;-63
2021/03/15 06:54:46;;;;;;;3.70;3.17;;;;;;;;;;5050034;28;20634;-61
2021/03/15 06:57:13;;;;;;;5.03;3.37;;;;;;;;;;5041099;28;20165;-64
2021/03/15 06:59:53;;;;;;;4.90;3.57;;;;;;;;;;5038051;28;20182;-61
2021/03/15 07:02:29;;;;;;;5.30;3.90;;;;;;;;;;5030951;28;20251;-61
2021/03/15 07:04:56;;;;;;;5.83;3.40;;;;;;;;;;5031659;28;20157;-62
2021/03/15 07:07:24;;;;;;;4.60;3.53;;;;;;;;;;5013979;28;20181;-62
2021/03/15 07:09:51;;;;;;;5.83;3.77;;;;;;;;;;5035081;28;20190;-60
2021/03/15 07:12:20;;;;;;;4.33;3.40;;;;;;;;;;5044856;28;20218;-61
2021/03/15 07:14:47;;;;;;;3.87;3.47;;;;;;;;;;5043807;28;20205;-61
2021/03/15 07:17:20;;;;;;;4.10;3.57;;;;;;;;;;5049412;28;20176;-61
2021/03/15 07:19:46;;;;;;;4.97;4.30;;;;;;;;;;5062566;28;20540;-61
2021/03/15 07:22:19;;;;;;;6.50;3.87;;;;;;;;;;5054087;28;20200;-63
2021/03/15 07:24:45;;;;;;;7.77;3.80;;;;;;;;;;5041813;28;20238;-63
2021/03/15 07:27:11;;;;;;;5.80;4.20;;;;;;;;;;5050521;28;20177;-61
2021/03/15 07:29:37;;;;;;;6.20;4.23;;;;;;;;;;5050947;28;20221;-61
2021/03/15 07:32:03;;;;;;;4.97;3.83;;;;;;;;;;5050880;28;20180;-62
2021/03/15 07:34:29;;;;;;;5.63;3.70;;;;;;;;;;5048682;28;20292;-61
2021/03/15 07:37:00;;;;;;;4.13;3.50;;;;;;;;;;5033029;28;20268;-62
2021/03/15 07:39:28;;;;;;;6.57;4.43;;;;;;;;;;5030181;28;20209;-62
2021/03/15 07:41:55;;;;;;;7.70;4.23;;;;;;;;;;5041386;28;20252;-61
2021/03/15 07:44:25;;;;;;;5.60;3.90;;;;;;;;;;5070627;28;20173;-62
2021/03/15 07:46:53;;;;;;;5.43;4.30;;;;;;;;;;5057412;28;20188;-61
2021/03/15 07:49:42;;;;;;;7.33;4.47;;;;;;;;;;5033770;28;20280;-61
2021/03/15 07:52:09;;;;;;;5.03;3.77;;;;;;;;;;5051331;28;20183;-61
2021/03/15 07:54:36;;;;;;;4.57;3.70;;;;;;;;;;5048537;28;20212;-61
2021/03/15 07:57:16;;;;;;;5.00;4.17;;;;;;;;;;5021571;28;20470;-61
2021/03/15 07:59:43;;;;;;;6.57;4.37;;;;;;;;;;5050379;28;20188;-61
2021/03/15 08:02:17;;;;;;;4.40;3.77;;;;;;;;;;5037836;28;20323;-61
2021/03/15 08:04:43;;;;;;;5.27;3.90;;;;;;;;;;5032583;28;21000;-61
2021/03/15 08:07:10;;;;;;;6.73;4.33;;;;;;;;;;5030719;28;20644;-61
2021/03/15 08:09:36;;;;;;;4.93;4.07;;;;;;;;;;5029280;28;20243;-61
2021/03/15 08:12:02;;;;;;;4.37;3.93;;;;;;;;;;5039188;28;20489;-60
2021/03/15 08:14:31;;;;;;;6.27;4.10;;;;;;;;;;5049491;28;20204;-61
2021/03/15 08:16:58;;;;;;;5.33;3.77;;;;;;;;;;5046723;28;20259;-61
2021/03/15 08:19:24;;;;;;;5.23;4.60;;;;;;;;;;5030010;28;20629;-62
2021/03/15 08:21:50;;;;;;;9.67;4.07;;;;;;;;;;5042974;28;20624;-61
2021/03/15 08:24:17;;;;;;;7.43;3.90;;;;;;;;;;5028747;28;20228;-61
2021/03/15 08:26:46;;;;;;;4.77;4.00;;;;;;;;;;5037840;28;20184;-61
2021/03/15 08:29:14;;;;;;;4.90;3.60;;;;;;;;;;5049139;28;20274;-61
2021/03/15 08:31:43;;;;;;;7.03;3.43;;;;;;;;;;5056610;28;20581;-60
2021/03/15 08:34:10;;;;;;;4.77;3.80;;;;;;;;;;5050121;28;20204;-60
2021/03/15 08:36:44;;;;;;;5.70;3.67;;;;;;;;;;5046061;28;20181;-62
2021/03/15 08:39:32;;;;;;;6.97;3.70;;;;;;;;;;5050198;28;20254;-61
2021/03/15 08:42:06;;;;;;;5.37;3.63;;;;;;;;;;5036866;28;20215;-61
2021/03/15 08:44:39;;;;;;;8.70;4.20;;;;;;;;;;5036760;28;20193;-61
2021/03/15 08:47:06;;;;;;;9.77;4.00;;;;;;;;;;5051976;28;20192;-61
2021/03/15 08:49:35;;;;;;;3.80;3.50;;;;;;;;;;5034389;28;20336;-61
2021/03/15 08:52:01;;;;;;;5.57;3.60;;;;;;;;;;5044709;28;20177;-61
2021/03/15 08:54:37;;;;;;;5.50;3.80;;;;;;;;;;5044513;28;20248;-62
2021/03/15 08:57:03;;;;;;;4.60;3.60;;;;;;;;;;5037328;28;20173;-61
2021/03/15 08:59:31;;;;;;;5.07;3.70;;;;;;;;;;5029532;28;20174;-60
2021/03/15 09:02:00;;;;;;;4.70;3.20;;;;;;;;;;5041324;28;20634;-61
2021/03/15 09:04:41;;;;;;;5.23;3.43;;;;;;;;;;5026374;28;20199;-64
2021/03/15 09:07:25;;;;;;;4.37;3.60;;;;;;;;;;5049666;28;20216;-63
2021/03/15 09:09:51;;;;;;;8.50;4.33;;;;;;;;;;5045705;28;20192;-61
2021/03/15 09:12:17;;;;;;;10.17;4.30;;;;;;;;;;5040344;28;20687;-61
2021/03/15 09:14:53;;;;;;;7.93;4.00;;;;;;;;;;5031467;28;20209;-61
2021/03/15 09:17:19;;;;;;;6.80;3.57;;;;;;;;;;5044358;28;20169;-61
2021/03/15 09:19:47;;;;;;;6.00;3.73;;;;;;;;;;5053561;28;20185;-61
2021/03/15 09:22:16;;;;;;;7.50;3.47;;;;;;;;;;5044374;28;20651;-61
2021/03/15 09:24:46;;;;;;;5.80;3.73;;;;;;;;;;5038097;28;20189;-62
2021/03/15 09:27:23;;;;;;;4.67;3.50;;;;;;;;;;5017608;28;20200;-61
2021/03/15 09:29:58;;;;;;;6.70;4.53;;;;;;;;;;5030854;28;20228;-61
2021/03/15 09:32:34;;;;;;;6.23;3.40;;;;;;;;;;5045466;28;20181;-61
2021/03/15 09:35:02;;;;;;;4.07;3.17;;;;;;;;;;5044570;28;20197;-61
2021/03/15 09:37:29;;;;;;;10.10;3.70;;;;;;;;;;5032086;28;20547;-61
2021/03/15 09:39:58;;;;;;;8.33;3.70;;;;;;;;;;5033322;28;20283;-61
2021/03/15 09:42:24;;;;;;;8.00;3.33;;;;;;;;;;5040951;28;20596;-61
2021/03/15 09:44:50;;;;;;;9.27;3.83;;;;;;;;;;5053258;28;20616;-61
2021/03/15 09:47:24;;;;;;;10.20;3.67;;;;;;;;;;5043541;28;20647;-62
2021/03/15 09:49:50;;;;;;;5.97;4.07;;;;;;;;;;5050575;28;20643;-61
2021/03/15 09:52:18;;;;;;;4.63;3.20;;;;;;;;;;5049796;28;20273;-62
2021/03/15 09:54:49;;;;;;;7.83;4.33;;;;;;;;;;5023420;28;20668;-62
2021/03/15 09:57:16;;;;;;;5.33;3.53;;;;;;;;;;5041628;28;20207;-61
2021/03/15 09:59:42;;;;;;;4.47;3.27;;;;;;;;;;5052781;28;20259;-61
2021/03/15 10:02:08;;;;;;;5.23;3.40;;;;;;;;;;5021726;28;20189;-61
2021/03/15 10:04:35;;;;;;;7.50;2.93;;;;;;;;;;5038033;28;20190;-62
2021/03/15 10:07:02;;;;;;;11.77;3.03;;;;;;;;;;5044563;28;20654;-62
2021/03/15 10:09:32;;;;;;;4.47;3.33;;;;;;;;;;5063938;28;20208;-61
2021/03/15 10:11:59;;;;;;;7.30;3.37;;;;;;;;;;5033391;28;20260;-62
2021/03/15 10:14:25;;;;;;;5.80;2.60;;;;;;;;;;5047148;28;20663;-61
2021/03/15 10:16:52;;;;;;;3.07;2.10;;;;;;;;;;5047870;28;20189;-62
2021/03/15 10:19:27;;;;;;;7.10;2.60;;;;;;;;;;5054332;28;20190;-61
2021/03/15 10:21:53;;;;;;;4.23;2.03;;;;;;;;;;5064092;28;20614;-61
2021/03/15 10:24:32;;;;;;;5.57;2.33;;;;;;;;;;5053353;28;20250;-61
2021/03/15 10:26:59;;;;;;;4.00;2.17;;;;;;;;;;5054795;28;20177;-63
2021/03/15 10:29:26;;;;;;;3.33;1.90;;;;;;;;;;5035062;28;20586;-61
2021/03/15 10:31:52;;;;;;;5.33;1.80;;;;;;;;;;5057438;28;20177;-61
2021/03/15 10:34:21;;;;;;;3.77;1.77;;;;;;;;;;5041726;28;20314;-62
2021/03/15 10:36:47;;;;;;;3.50;1.90;;;;;;;;;;5045355;28;20183;-62
2021/03/15 10:39:14;;;;;;;7.10;1.73;;;;;;;;;;5061296;28;20260;-62
2021/03/15 10:41:40;;;;;;;3.87;2.00;;;;;;;;;;5059679;28;20181;-61
2021/03/15 10:44:07;;;;;;;5.77;2.30;;;;;;;;;;5045905;28;20192;-62
2021/03/15 10:46:45;;;;;;;5.40;1.93;;;;;;;;;;5043050;28;20227;-63
2021/03/15 10:49:21;;;;;;;5.77;2.27;;;;;;;;;;5062883;28;20191;-61
2021/03/15 10:51:50;;;;;;;2.33;1.60;;;;;;;;;;5059724;28;20203;-61
2021/03/15 10:54:30;;;;;;;4.20;1.93;;;;;;;;;;5058591;28;20201;-61
2021/03/15 10:57:15;;;;;;;5.40;1.97;;;;;;;;;;5026177;28;20170;-61
2021/03/15 10:59:42;;;;;;;3.80;1.90;;;;;;;;;;5063455;28;20217;-60
2021/03/15 11:02:08;;;;;;;5.73;1.80;;;;;;;;;;5037213;28;20619;-63
2021/03/15 11:04:35;;;;;;;4.07;1.83;;;;;;;;;;5055372;28;20643;-62
2021/03/15 11:07:16;;;;;;;9.03;2.57;;;;;;;;;;5034303;28;20219;-62
2021/03/15 11:09:51;;;;;;;5.43;2.17;;;;;;;;;;5051367;28;20196;-61
2021/03/15 11:12:30;;;;;;;5.40;1.50;;;;;;;;;;5036975;28;20647;-61
2021/03/15 11:15:09;;;;;;;6.80;1.80;;;;;;;;;;5053628;28;20229;-62
2021/03/15 11:17:35;;;;;;;3.10;1.60;;;;;;;;;;5050666;28;20188;-62
2021/03/15 11:20:02;;;;;;;4.10;1.30;;;;;;;;;;5058749;28;20183;-62
2021/03/15 11:22:28;;;;;;;3.33;2.03;;;;;;;;;;5051970;28;21034;-62
2021/03/15 11:25:13;;;;;;;2.77;1.63;;;;;;;;;;5052096;28;20251;-62
2021/03/15 11:27:39;;;;;;;4.30;1.70;;;;;;;;;;5035735;28;20180;-61
2021/03/15 11:30:06;;;;;;;4.97;1.80;;;;;;;;;;5062625;28;20193;-63
2021/03/15 11:32:32;;;;;;;5.00;1.70;;;;;;;;;;5043157;28;20207;-61
2021/03/15 11:34:58;;;;;;;2.93;1.30;;;;;;;;;;5038598;28;20208;-61
2021/03/15 11:37:25;;;;;;;2.50;1.13;;;;;;;;;;5054885;28;20214;-62
2021/03/15 11:39:51;;;;;;;4.13;1.40;;;;;;;;;;5052389;28;20552;-61
2021/03/15 11:42:24;;;;;;;5.83;1.80;;;;;;;;;;5053010;28;20550;-62
2021/03/15 11:44:51;;;;;;;6.37;1.80;;;;;;;;;;5059221;28;20175;-63
2021/03/15 11:47:17;;;;;;;4.27;1.70;;;;;;;;;;5050358;28;20199;-61
2021/03/15 11:49:43;;;;;;;4.20;1.60;;;;;;;;;;5040862;28;20718;-63
2021/03/15 11:52:09;;;;;;;4.07;1.70;;;;;;;;;;5060204;28;20381;-62
2021/03/15 11:54:35;;;;;;;4.10;1.40;;;;;;;;;;5060259;28;20226;-62
2021/03/15 11:57:01;;;;;;;5.57;2.20;;;;;;;;;;5057990;28;20691;-61
2021/03/15 11:59:27;;;;;;;2.23;1.57;;;;;;;;;;5040079;28;20231;-61
2021/03/15 12:01:53;;;;;;;3.90;1.43;;;;;;;;;;5051211;28;20264;-63
2021/03/15 12:04:19;;;;;;;2.77;1.40;;;;;;;;;;5040588;28;20644;-61
2021/03/15 12:06:46;;;;;;;4.97;2.27;;;;;;;;;;5059507;28;20188;-61
2021/03/15 12:09:12;;;;;;;2.77;1.10;;;;;;;;;;5050841;28;20173;-61
2021/03/15 12:11:38;;;;;;;2.60;1.50;;;;;;;;;;5054969;28;20177;-61
2021/03/15 12:14:04;;;;;;;2.73;1.10;;;;;;;;;;5048898;28;20203;-62
2021/03/15 12:16:30;;;;;;;3.03;1.33;;;;;;;;;;5043613;28;20197;-62
2021/03/15 12:18:56;;;;;;;1.40;1.13;;;;;;;;;;5057617;28;20169;-62
2021/03/15 12:21:23;;;;;;;3.77;1.10;;;;;;;;;;5062276;28;20175;-62
2021/03/15 12:23:49;;;;;;;3.47;1.10;;;;;;;;;;5064674;28;20230;-62
2021/03/15 12:26:15;;;;;;;2.50;1.23;;;;;;;;;;5053563;28;20546;-64
2021/03/15 12:28:41;;;;;;;2.23;1.10;;;;;;;;;;5060011;28;20225;-62
2021/03/15 12:31:07;;;;;;;2.40;1.33;;;;;;;;;;5050283;28;20177;-64
2021/03/15 12:33:33;;;;;;;2.83;1.03;;;;;;;;;;5036562;28;20188;-62
2021/03/15 12:35:59;;;;;;;3.23;1.20;;;;;;;;;;5056843;28;20170;-63
2021/03/15 12:38:25;;;;;;;1.80;0.87;;;;;;;;;;5054056;28;20231;-63
2021/03/15 12:40:51;;;;;;;3.03;1.13;;;;;;;;;;5052338;28;20580;-62
2021/03/15 12:43:18;;;;;;;3.57;0.93;;;;;;;;;;5033488;28;20187;-62
2021/03/15 12:45:44;;;;;;;3.27;1.17;;;;;;;;;;5060651;28;20196;-64
2021/03/15 12:48:10;;;;;;;2.53;1.30;;;;;;;;;;5045697;28;20176;-63
2021/03/15 12:50:36;;;;;;;2.63;1.50;;;;;;;;;;5037179;28;20671;-62
2021/03/15 12:53:03;;;;;;;2.80;1.30;;;;;;;;;;5034274;28;20177;-62
2021/03/15 12:55:29;;;;;;;1.83;1.20;;;;;;;;;;5059208;28;20197;-63
2021/03/15 12:57:55;;;;;;;4.43;1.73;;;;;;;;;;5058305;28;20259;-62
2021/03/15 13:00:21;;;;;;;1.83;1.03;;;;;;;;;;5042026;28;20260;-62
2021/03/15 13:02:48;;;;;;;2.00;1.30;;;;;;;;;;5043290;28;20185;-61
2021/03/15 13:05:15;;;;;;;1.83;1.07;;;;;;;;;;5058633;28;21030;-62
2021/03/15 13:07:41;;;;;;;3.47;1.23;;;;;;;;;;5057937;28;20238;-62
2021/03/15 13:10:07;;;;;;;2.97;1.17;;;;;;;;;;5040032;28;20184;-62
2021/03/15 13:12:34;;;;;;;2.47;1.50;;;;;;;;;;5032860;28;20569;-62
2021/03/15 13:15:00;;;;;;;3.63;1.20;;;;;;;;;;5061201;28;20334;-64
2021/03/15 13:17:28;;;;;;;2.20;1.00;;;;;;;;;;5056560;28;20235;-62
2021/03/15 13:19:54;;;;;;;5.47;1.40;;;;;;;;;;5047462;28;20173;-62
2021/03/15 13:22:20;;;;;;;4.33;1.50;;;;;;;;;;5059639;28;20176;-63
2021/03/15 13:24:48;;;;;;;5.37;1.53;;;;;;;;;;5039595;28;20595;-63
2021/03/15 13:27:14;;;;;;;5.33;1.30;;;;;;;;;;5045122;28;20205;-62
2021/03/15 13:29:40;;;;;;;4.63;1.77;;;;;;;;;;5027529;28;20233;-63
2021/03/15 13:32:06;;;;;;;1.37;0.90;;;;;;;;;;5050410;28;20204;-64
2021/03/15 13:34:32;;;;;;;3.73;1.47;;;;;;;;;;5055545;28;20250;-62
2021/03/15 13:36:58;;;;;;;2.83;1.50;;;;;;;;;;5058838;28;20627;-62
2021/03/15 13:39:26;;;;;;;6.17;1.10;;;;;;;;;;5032543;28;20215;-62
2021/03/15 13:41:52;;;;;;;6.80;1.57;;;;;;;;;;5036868;28;20191;-62
2021/03/15 13:44:18;;;;;;;4.23;1.53;;;;;;;;;;5038760;28;20181;-62
2021/03/15 13:46:44;;;;;;;5.30;1.40;;;;;;;;;;5057598;28;20202;-63
2021/03/15 13:49:10;;;;;;;4.17;1.57;;;;;;;;;;5056537;28;20229;-63
2021/03/15 13:51:36;;;;;;;3.17;1.37;;;;;;;;;;5033804;28;20181;-62
2021/03/15 13:54:03;;;;;;;4.53;1.37;;;;;;;;;;5040938;28;20196;-62
2021/03/15 13:56:29;;;;;;;5.80;1.33;;;;;;;;;;5052456;28;20747;-62
2021/03/15 13:58:55;;;;;;;1.57;1.10;;;;;;;;;;5037289;28;20617;-64
2021/03/15 14:01:21;;;;;;;3.10;1.40;;;;;;;;;;5053798;28;20188;-62
2021/03/15 14:03:47;;;;;;;3.13;1.13;;;;;;;;;;5039890;28;20246;-62
2021/03/15 14:06:13;;;;;;;4.17;1.50;;;;;;;;;;5053020;28;20231;-64
2021/03/15 14:08:39;;;;;;;3.60;1.50;;;;;;;;;;5038823;28;20223;-64
2021/03/15 14:11:05;;;;;;;3.37;1.47;;;;;;;;;;5048099;28;20185;-65
2021/03/15 14:13:31;;;;;;;4.53;1.67;;;;;;;;;;5055922;28;20185;-62
2021/03/15 14:15:57;;;;;;;2.90;1.20;;;;;;;;;;5050086;28;20204;-62
2021/03/15 14:18:23;;;;;;;3.73;1.63;;;;;;;;;;5054973;28;20181;-62
2021/03/15 14:20:49;;;;;;;3.73;1.70;;;;;;;;;;5056031;28;20655;-62
2021/03/15 14:23:15;;;;;;;4.87;1.80;;;;;;;;;;5050375;28;20178;-62
2021/03/15 14:25:41;;;;;;;4.17;2.00;;;;;;;;;;5030160;28;20189;-61
2021/03/15 14:28:07;;;;;;;4.27;1.60;;;;;;;;;;5051762;28;20224;-62
2021/03/15 14:30:34;;;;;;;5.20;2.17;;;;;;;;;;5051843;28;20172;-61
2021/03/15 14:33:00;;;;;;;3.67;1.90;;;;;;;;;;5055524;28;20619;-62
2021/03/15 14:35:26;;;;;;;4.20;2.03;;;;;;;;;;5054818;28;20193;-62
2021/03/15 14:37:52;;;;;;;4.43;1.70;;;;;;;;;;5063066;28;20651;-61
2021/03/15 14:40:18;;;;;;;6.80;2.23;;;;;;;;;;5058589;28;20525;-63
2021/03/15 14:42:44;;;;;;;4.00;2.00;;;;;;;;;;5038390;28;20219;-62
2021/03/15 14:45:10;;;;;;;2.90;1.17;;;;;;;;;;5029529;28;20556;-62
2021/03/15 14:47:36;;;;;;;7.23;1.97;;;;;;;;;;5056214;28;20268;-62
2021/03/15 14:50:02;;;;;;;2.63;1.40;;;;;;;;;;5037552;28;20580;-62